This is the latest recevied weather packets stored in our database for station/object KSRR. If no packets are shown the sender has not sent any weather packets the latest 1 day(s).
| Time | Temp. | Humidity | Pressure | Rain* | Wind** | Luminosity | Snow |
|---|---|---|---|---|---|---|---|
| 1777995939 | 15° C | 30% | 1014.9 hPa | - | 7.6 m/s, 250° | - | - |
| 1777995218 | 15° C | 30% | 1015.2 hPa | - | 8.94 m/s, 260° | - | - |
| 1777994620 | 15° C | 30% | 1015.2 hPa | - | 8.94 m/s, 260° | - | - |
| 1777994019 | 13.89° C | 35% | 1015.2 hPa | - | 8.49 m/s, 260° | - | - |
| 1777993417 | 13.89° C | 35% | 1015.2 hPa | - | 8.49 m/s, 260° | - | - |
| 1777992818 | 12.78° C | - | 1014.9 hPa | - | 11.62 m/s, 250° | - | - |
| 1777992217 | 12.78° C | - | 1014.9 hPa | - | 11.62 m/s, 250° | - | - |
| 1777991617 | 12.78° C | - | 1015.2 hPa | - | 14.31 m/s, 240° | - | - |
| 1777991019 | 12.78° C | - | 1015.2 hPa | - | 14.31 m/s, 240° | - | - |
| 1777990417 | 15° C | 30% | 1015.9 hPa | - | 12.52 m/s, 240° | - | - |
| 1777989817 | 15° C | 30% | 1015.9 hPa | - | 12.52 m/s, 240° | - | - |
| 1777989216 | 15° C | 30% | 1015.6 hPa | - | 7.6 m/s, 270° | - | - |
| 1777988619 | 15° C | 30% | 1015.6 hPa | - | 7.6 m/s, 270° | - | - |
| 1777988017 | 15° C | 28% | 1015.2 hPa | - | 5.36 m/s, 260° | - | - |
| 1777987419 | 15° C | 28% | 1015.2 hPa | - | 5.36 m/s, 260° | - | - |
| 1777986816 | 12.78° C | 35% | 1014.6 hPa | - | 5.36 m/s, 310° | - | - |
| 1777986217 | 12.78° C | 35% | 1014.6 hPa | - | 5.36 m/s, 310° | - | - |
| 1777985619 | 12.78° C | 35% | 1014.6 hPa | - | 5.36 m/s, 310° | - | - |
| 1777985020 | 12.78° C | 35% | 1014.6 hPa | - | 5.36 m/s, 310° | - | - |
| 1777984417 | 12.78° C | 35% | 1014.6 hPa | - | 5.81 m/s, 310° | - | - |
| 1777983814 | 12.78° C | 35% | 1014.6 hPa | - | 5.81 m/s, 310° | - | - |
| 1777983214 | 13.89° C | 33% | 1014.2 hPa | - | 5.81 m/s, 300° | - | - |
* Rain since midnight (hover to see other rain measurements)
** Current wind speed in m/s (hover to see current wind gust speed)